Time;durP1;ratioP1;P1;durP2;ratioP2;P2;SDS_P1;SDS_P2;PMS_P1;PMS_P2;Temp;Humidity;BMP_temperature;BMP_pressure;BME280_temperature;BME280_humidity;BME280_pressure;Samples;Min_cycle;Max_cycle;Signal;HPM_P1;HPM_P2
2023/08/22 00:00:40;;;;;;;8.63;8.10;;;23.70;99.90;;;;;;5089898;28;20200;-59
2023/08/22 00:03:07;;;;;;;9.97;8.93;;;23.70;99.90;;;;;;5085811;28;20253;-59
2023/08/22 00:05:34;;;;;;;8.83;8.20;;;23.70;99.90;;;;;;5082880;28;20228;-60
2023/08/22 00:08:04;;;;;;;8.73;8.13;;;23.70;99.90;;;;;;5082959;28;20200;-60
2023/08/22 00:10:31;;;;;;;8.47;7.90;;;23.60;99.90;;;;;;5077286;28;20209;-60
2023/08/22 00:12:57;;;;;;;9.00;8.40;;;23.60;99.90;;;;;;5080378;28;20201;-59
2023/08/22 00:15:26;;;;;;;9.53;8.77;;;23.60;99.90;;;;;;5085767;28;20212;-60
2023/08/22 00:17:53;;;;;;;10.20;9.47;;;23.60;99.90;;;;;;5071684;28;20201;-59
2023/08/22 00:20:20;;;;;;;10.70;9.80;;;23.70;99.90;;;;;;5069010;28;20193;-60
2023/08/22 00:22:47;;;;;;;9.10;8.27;;;23.70;99.90;;;;;;5080278;28;20574;-58
2023/08/22 00:25:14;;;;;;;8.80;8.20;;;23.70;99.90;;;;;;5085693;28;20216;-60
2023/08/22 00:27:41;;;;;;;9.40;8.60;;;23.70;99.90;;;;;;5076144;28;20201;-60
2023/08/22 00:30:09;;;;;;;8.67;7.97;;;23.70;99.90;;;;;;5079793;28;20204;-59
2023/08/22 00:32:37;;;;;;;8.50;7.90;;;23.80;99.90;;;;;;5070301;28;20221;-58
2023/08/22 00:35:04;;;;;;;8.97;8.37;;;23.70;99.90;;;;;;5080512;28;20225;-59
2023/08/22 00:37:31;;;;;;;7.83;7.33;;;23.70;99.90;;;;;;5080236;28;20697;-59
2023/08/22 00:40:00;;;;;;;9.00;8.23;;;23.70;99.90;;;;;;5091711;28;20200;-60
2023/08/22 00:42:27;;;;;;;9.27;8.47;;;23.70;99.90;;;;;;5084948;28;20201;-61
2023/08/22 00:44:54;;;;;;;8.23;7.53;;;23.70;99.90;;;;;;5070441;28;20764;-58
2023/08/22 00:47:23;;;;;;;8.20;7.80;;;23.70;99.90;;;;;;5070240;28;20576;-60
2023/08/22 00:49:52;;;;;;;9.20;8.40;;;23.60;99.90;;;;;;5072173;28;20202;-59
2023/08/22 00:52:19;;;;;;;8.93;8.03;;;23.60;99.90;;;;;;5069579;28;20225;-60
2023/08/22 00:54:47;;;;;;;10.23;9.23;;;23.50;99.90;;;;;;5080968;28;20221;-59
2023/08/22 00:57:14;;;;;;;9.90;9.30;;;23.40;99.90;;;;;;5071856;28;20284;-60
2023/08/22 00:59:42;;;;;;;9.93;9.00;;;23.30;99.90;;;;;;5072152;28;20201;-60
2023/08/22 01:02:09;;;;;;;9.00;8.10;;;23.30;99.90;;;;;;5069993;28;20280;-59
2023/08/22 01:04:36;;;;;;;9.50;8.90;;;23.30;99.90;;;;;;5071357;28;20706;-60
2023/08/22 01:07:12;;;;;;;11.67;10.03;;;23.30;99.90;;;;;;5080487;28;20200;-59
2023/08/22 01:09:46;;;;;;;9.43;8.80;;;23.20;99.90;;;;;;5069275;28;20278;-59
2023/08/22 01:12:20;;;;;;;9.20;8.60;;;23.20;99.90;;;;;;5076918;28;20685;-59
2023/08/22 01:14:55;;;;;;;8.73;7.97;;;23.20;99.90;;;;;;5084255;28;20229;-59
2023/08/22 01:17:23;;;;;;;10.40;9.47;;;23.10;99.90;;;;;;5074345;28;20570;-60
2023/08/22 01:19:50;;;;;;;9.03;8.33;;;23.10;99.90;;;;;;5081372;28;20205;-60
2023/08/22 01:22:24;;;;;;;12.50;9.80;;;23.10;99.90;;;;;;5091909;28;20328;-59
2023/08/22 01:24:51;;;;;;;10.47;9.43;;;23.00;99.90;;;;;;5092258;28;20219;-59
2023/08/22 01:27:22;;;;;;;10.40;9.50;;;23.00;99.90;;;;;;5077245;28;20716;-59
2023/08/22 01:29:56;;;;;;;10.20;9.23;;;23.00;99.90;;;;;;5071855;28;20297;-60
2023/08/22 01:32:28;;;;;;;8.53;8.13;;;22.90;99.90;;;;;;5078136;28;20212;-59
2023/08/22 01:35:01;;;;;;;10.27;9.63;;;22.80;99.90;;;;;;5073066;28;20274;-59
2023/08/22 01:37:32;;;;;;;10.17;9.03;;;22.80;99.90;;;;;;5079543;28;20206;-59
2023/08/22 01:40:00;;;;;;;8.70;8.20;;;22.70;99.90;;;;;;5083877;28;20665;-60
2023/08/22 01:42:27;;;;;;;10.13;9.13;;;22.60;99.90;;;;;;5085870;28;20626;-60
2023/08/22 01:44:54;;;;;;;10.53;9.67;;;22.60;99.90;;;;;;5080687;28;20220;-59
2023/08/22 01:47:21;;;;;;;9.17;8.57;;;22.50;99.90;;;;;;5076096;28;20192;-59
2023/08/22 01:49:48;;;;;;;11.93;8.97;;;22.60;99.90;;;;;;5074216;28;20200;-59
2023/08/22 01:52:15;;;;;;;9.60;9.00;;;22.50;99.90;;;;;;5073313;28;20280;-61
2023/08/22 01:54:44;;;;;;;9.90;8.93;;;22.50;99.90;;;;;;5070293;28;20290;-59
2023/08/22 01:57:11;;;;;;;10.50;9.63;;;22.50;99.90;;;;;;5077958;28;20200;-60
2023/08/22 01:59:38;;;;;;;9.90;9.20;;;22.50;99.90;;;;;;5078039;28;20674;-59
2023/08/22 02:02:05;;;;;;;10.07;9.17;;;22.50;99.90;;;;;;5071439;28;20193;-60
2023/08/22 02:04:32;;;;;;;8.97;8.27;;;22.50;99.90;;;;;;5071222;28;20246;-60
2023/08/22 02:06:59;;;;;;;10.00;9.20;;;22.50;99.90;;;;;;5079706;28;20196;-59
2023/08/22 02:09:26;;;;;;;9.90;9.20;;;22.40;99.90;;;;;;5078594;28;20254;-60
2023/08/22 02:11:54;;;;;;;9.27;8.57;;;22.40;99.90;;;;;;5085799;28;20303;-59
2023/08/22 02:14:21;;;;;;;9.90;9.03;;;22.50;99.90;;;;;;5084721;28;20900;-60
2023/08/22 02:16:48;;;;;;;9.57;8.77;;;22.50;99.90;;;;;;5082008;28;20200;-59
2023/08/22 02:19:16;;;;;;;10.60;9.70;;;22.50;99.90;;;;;;5078306;28;20683;-59
2023/08/22 02:21:43;;;;;;;10.07;9.30;;;22.50;99.90;;;;;;5069028;28;20193;-59
2023/08/22 02:24:10;;;;;;;10.83;9.93;;;22.50;99.90;;;;;;5083131;28;20201;-61
2023/08/22 02:26:37;;;;;;;8.97;8.37;;;22.50;99.90;;;;;;5080516;28;20251;-59
2023/08/22 02:29:05;;;;;;;9.43;8.80;;;22.50;99.90;;;;;;5059043;28;20278;-59
2023/08/22 02:31:32;;;;;;;10.00;9.20;;;22.50;99.90;;;;;;5061321;28;21534;-61
2023/08/22 02:33:59;;;;;;;10.23;9.43;;;22.50;99.90;;;;;;5078845;28;20256;-59
2023/08/22 02:36:26;;;;;;;10.47;9.67;;;22.40;99.90;;;;;;5078128;28;20302;-58
2023/08/22 02:38:53;;;;;;;10.33;9.47;;;22.40;99.90;;;;;;5079245;28;20607;-60
2023/08/22 02:41:20;;;;;;;10.30;9.50;;;22.40;99.90;;;;;;5068656;28;20201;-60
2023/08/22 02:43:46;;;;;;;10.20;9.27;;;22.30;99.90;;;;;;5078380;28;20616;-60
2023/08/22 02:46:15;;;;;;;10.03;9.33;;;22.20;99.90;;;;;;5069058;28;20217;-60
2023/08/22 02:48:42;;;;;;;10.27;9.37;;;22.10;99.90;;;;;;5076873;28;20630;-60
2023/08/22 02:51:09;;;;;;;11.43;10.40;;;22.10;99.90;;;;;;5080797;28;20201;-60
2023/08/22 02:53:36;;;;;;;10.30;9.70;;;22.00;99.90;;;;;;5074173;28;20722;-59
2023/08/22 02:56:04;;;;;;;9.53;8.67;;;22.00;99.90;;;;;;5082887;28;20221;-59
2023/08/22 02:58:31;;;;;;;10.80;9.80;;;22.10;99.90;;;;;;5074741;28;20243;-59
2023/08/22 03:00:58;;;;;;;10.23;9.53;;;22.00;99.90;;;;;;5072689;28;20205;-60
2023/08/22 03:03:27;;;;;;;10.90;9.80;;;22.00;99.90;;;;;;5072953;28;20217;-59
2023/08/22 03:05:56;;;;;;;10.80;9.77;;;22.00;99.90;;;;;;5074690;28;20270;-57
2023/08/22 03:08:23;;;;;;;9.00;8.47;;;22.00;99.90;;;;;;5064994;28;20193;-61
2023/08/22 03:10:50;;;;;;;9.73;8.93;;;21.90;99.90;;;;;;5063964;28;20197;-60
2023/08/22 03:13:17;;;;;;;11.67;10.60;;;21.90;99.90;;;;;;5066119;28;20792;-59
2023/08/22 03:15:45;;;;;;;10.20;9.50;;;21.90;99.90;;;;;;5059808;28;20221;-60
2023/08/22 03:18:12;;;;;;;9.00;8.47;;;21.90;99.90;;;;;;5062673;28;20237;-60
2023/08/22 03:20:40;;;;;;;11.10;9.97;;;21.80;99.90;;;;;;5053448;28;20202;-59
2023/08/22 03:23:10;;;;;;;11.07;9.97;;;21.80;99.90;;;;;;5072600;28;20250;-59
2023/08/22 03:25:37;;;;;;;10.47;9.63;;;21.80;99.90;;;;;;5059483;28;20222;-59
2023/08/22 03:28:05;;;;;;;9.50;8.90;;;21.70;99.90;;;;;;5075066;28;20250;-59
2023/08/22 03:30:32;;;;;;;9.80;9.20;;;21.70;99.90;;;;;;5076135;28;20202;-59
2023/08/22 03:32:59;;;;;;;9.77;9.13;;;21.70;99.90;;;;;;5070286;28;20209;-60
2023/08/22 03:35:26;;;;;;;12.97;10.13;;;21.70;99.90;;;;;;5063271;28;20228;-59
2023/08/22 03:37:54;;;;;;;9.60;8.80;;;21.60;99.90;;;;;;5069302;28;20243;-59
2023/08/22 03:40:21;;;;;;;10.30;9.67;;;21.60;99.90;;;;;;5056009;28;20206;-59
2023/08/22 03:42:48;;;;;;;11.10;10.10;;;21.60;99.90;;;;;;5063736;28;20618;-58
2023/08/22 03:45:15;;;;;;;11.60;10.43;;;21.70;99.90;;;;;;5061353;28;20221;-60
2023/08/22 03:47:42;;;;;;;11.67;10.47;;;21.70;99.90;;;;;;5057875;28;20668;-59
2023/08/22 03:50:09;;;;;;;10.80;9.73;;;21.70;99.90;;;;;;5057603;28;20205;-60
2023/08/22 03:52:36;;;;;;;10.90;10.00;;;21.60;99.90;;;;;;5061519;28;20218;-59
2023/08/22 03:55:05;;;;;;;10.17;9.47;;;21.60;99.90;;;;;;5065153;28;20220;-60
2023/08/22 03:57:32;;;;;;;10.77;10.07;;;21.70;99.90;;;;;;5063157;28;20209;-58
2023/08/22 03:59:59;;;;;;;10.50;9.80;;;21.70;99.90;;;;;;5068804;28;20201;-59
2023/08/22 04:02:26;;;;;;;13.50;11.53;;;21.70;99.90;;;;;;5064905;28;20266;-60
2023/08/22 04:04:52;;;;;;;9.43;8.93;;;21.60;99.90;;;;;;5066615;28;20225;-59
2023/08/22 04:07:19;;;;;;;11.27;10.20;;;21.60;99.90;;;;;;5056279;28;20247;-60
2023/08/22 04:09:46;;;;;;;10.97;9.93;;;21.60;99.90;;;;;;5053444;28;20202;-59
2023/08/22 04:12:15;;;;;;;10.60;9.63;;;21.50;99.90;;;;;;5069288;28;20221;-60
2023/08/22 04:14:42;;;;;;;9.83;9.23;;;21.50;99.90;;;;;;5063123;28;20221;-59
2023/08/22 04:17:09;;;;;;;10.70;10.00;;;21.40;99.90;;;;;;5053158;28;20194;-59
2023/08/22 04:19:36;;;;;;;11.90;11.03;;;21.30;99.90;;;;;;5059935;28;20201;-61
2023/08/22 04:22:03;;;;;;;10.43;9.63;;;21.30;99.90;;;;;;5062887;28;20208;-59
2023/08/22 04:24:29;;;;;;;11.47;10.30;;;21.40;99.90;;;;;;5057357;28;20761;-59
2023/08/22 04:26:56;;;;;;;12.07;10.03;;;21.40;99.90;;;;;;5066118;28;20250;-59
2023/08/22 04:29:25;;;;;;;8.63;8.07;;;21.40;99.90;;;;;;5071078;28;20273;-59
2023/08/22 04:31:52;;;;;;;9.50;8.70;;;21.40;99.90;;;;;;5058092;28;20205;-59
2023/08/22 04:34:19;;;;;;;11.83;10.70;;;21.40;99.90;;;;;;5063948;28;20202;-59
2023/08/22 04:36:46;;;;;;;11.17;10.07;;;21.30;99.90;;;;;;5063050;28;20202;-59
2023/08/22 04:39:13;;;;;;;15.20;10.53;;;21.30;99.90;;;;;;5065077;28;20579;-59
2023/08/22 04:41:39;;;;;;;11.63;10.63;;;21.30;99.90;;;;;;5051934;28;20674;-59
2023/08/22 04:44:06;;;;;;;10.80;9.90;;;21.30;99.90;;;;;;5055814;28;20197;-60
2023/08/22 04:46:35;;;;;;;12.10;10.20;;;21.30;99.90;;;;;;5059229;28;20736;-59
2023/08/22 04:49:02;;;;;;;12.97;12.07;;;21.30;99.90;;;;;;5055875;28;20667;-58
2023/08/22 04:51:29;;;;;;;12.00;11.00;;;21.30;99.90;;;;;;5054351;28;20646;-60
2023/08/22 04:53:56;;;;;;;14.80;12.73;;;21.30;99.90;;;;;;5071704;28;20218;-59
2023/08/22 04:56:23;;;;;;;12.10;11.03;;;21.30;99.90;;;;;;5058179;28;20216;-59
2023/08/22 04:58:50;;;;;;;12.80;11.60;;;21.30;99.90;;;;;;5060283;28;20197;-59
2023/08/22 05:01:16;;;;;;;13.47;12.30;;;21.40;99.90;;;;;;5058372;28;20239;-59
2023/08/22 05:03:46;;;;;;;13.37;12.17;;;21.40;99.90;;;;;;5062952;28;20279;-59
2023/08/22 05:06:13;;;;;;;12.97;11.53;;;21.50;99.90;;;;;;5054855;28;20217;-59
2023/08/22 05:08:41;;;;;;;13.03;12.13;;;21.50;99.90;;;;;;5054667;28;20197;-59
2023/08/22 05:11:07;;;;;;;11.80;10.60;;;21.70;99.90;;;;;;5061311;28;20251;-60
2023/08/22 05:13:34;;;;;;;12.70;11.50;;;21.80;99.90;;;;;;5060850;28;20776;-59
2023/08/22 05:16:01;;;;;;;13.07;11.93;;;21.90;99.90;;;;;;5053872;28;20217;-60
2023/08/22 05:18:28;;;;;;;12.87;11.47;;;22.00;99.90;;;;;;5051271;28;20263;-60
2023/08/22 05:20:57;;;;;;;15.53;13.87;;;22.10;99.90;;;;;;5059291;28;20234;-59
2023/08/22 05:23:24;;;;;;;12.40;11.30;;;22.30;99.90;;;;;;5059788;28;20656;-60
2023/08/22 05:25:50;;;;;;;13.50;12.33;;;22.50;99.90;;;;;;5059893;28;20213;-59
2023/08/22 05:28:17;;;;;;;13.83;12.10;;;23.00;99.90;;;;;;5065860;28;20197;-59
2023/08/22 05:30:44;;;;;;;13.70;11.30;;;23.80;99.90;;;;;;5068182;28;20205;-60
2023/08/22 05:33:13;;;;;;;13.60;11.30;;;24.60;99.90;;;;;;5065417;28;20726;-59
2023/08/22 05:35:40;;;;;;;13.47;12.10;;;25.40;99.90;;;;;;5058449;28;20228;-60
2023/08/22 05:38:11;;;;;;;12.00;11.07;;;26.00;99.90;;;;;;5107066;22;20308;-57
2023/08/22 05:40:38;;;;;;;14.47;10.90;;;26.70;99.90;;;;;;5020095;28;20206;-57
2023/08/22 05:43:05;;;;;;;14.37;12.13;;;27.50;99.90;;;;;;5019095;28;20194;-57
2023/08/22 05:45:32;;;;;;;12.27;11.37;;;28.10;99.90;;;;;;5017222;28;20211;-56
2023/08/22 05:47:59;;;;;;;12.95;11.70;;;28.80;99.90;;;;;;5026475;28;20564;-57
2023/08/22 05:50:26;;;;;;;11.82;10.50;;;29.00;99.90;;;;;;5010717;28;20198;-56
2023/08/22 05:52:52;;;;;;;11.48;10.60;;;29.40;99.90;;;;;;5014598;28;20237;-56
2023/08/22 05:55:21;;;;;;;13.85;10.98;;;29.70;99.90;;;;;;5023411;28;20195;-57
2023/08/22 05:57:48;;;;;;;12.57;11.02;;;30.00;99.90;;;;;;5029139;28;20210;-56
2023/08/22 06:00:16;;;;;;;12.23;10.40;;;30.10;99.90;;;;;;5025800;28;20276;-57
2023/08/22 06:02:43;;;;;;;10.57;9.77;;;30.50;99.90;;;;;;5019773;28;20200;-57
2023/08/22 06:05:10;;;;;;;12.15;10.98;;;30.50;99.90;;;;;;5017503;28;20191;-57
2023/08/22 06:07:37;;;;;;;10.98;10.15;;;30.80;99.90;;;;;;5029038;28;20202;-57
2023/08/22 06:10:04;;;;;;;11.10;10.20;;;31.40;99.90;;;;;;5028854;28;20268;-57
2023/08/22 06:12:32;;;;;;;10.63;9.70;;;31.60;99.90;;;;;;5021225;28;20731;-57
2023/08/22 06:14:59;;;;;;;12.30;11.25;;;31.80;99.90;;;;;;5018587;28;20206;-56
2023/08/22 06:17:26;;;;;;;10.77;9.70;;;31.70;99.90;;;;;;5018828;28;20266;-55
2023/08/22 06:19:54;;;;;;;11.05;10.15;;;32.10;99.90;;;;;;5022066;28;20219;-55
2023/08/22 06:22:20;;;;;;;10.90;10.07;;;32.30;99.90;;;;;;5026463;28;20199;-56
2023/08/22 06:24:47;;;;;;;9.93;9.10;;;32.80;99.90;;;;;;5012820;28;20658;-55
2023/08/22 06:27:14;;;;;;;9.73;8.90;;;33.00;99.90;;;;;;5019484;28;20198;-55
2023/08/22 06:29:43;;;;;;;9.90;9.25;;;33.40;99.90;;;;;;5017647;28;21103;-56
2023/08/22 06:32:10;;;;;;;8.65;8.05;;;33.40;99.90;;;;;;5017686;28;20257;-54
2023/08/22 06:34:36;;;;;;;8.63;7.78;;;33.80;99.90;;;;;;5030139;28;20234;-56
2023/08/22 06:37:05;;;;;;;8.20;7.57;;;34.20;99.90;;;;;;5018544;28;20668;-56
2023/08/22 06:39:32;;;;;;;10.00;9.05;;;34.50;99.90;;;;;;5013898;28;20246;-55
2023/08/22 06:41:59;;;;;;;8.57;7.75;;;34.80;99.90;;;;;;5016472;28;20199;-56
2023/08/22 06:44:26;;;;;;;8.02;7.63;;;34.70;99.90;;;;;;5020290;28;20203;-56
2023/08/22 06:46:55;;;;;;;10.00;9.05;;;34.90;99.90;;;;;;5017737;28;20719;-56
2023/08/22 06:49:21;;;;;;;8.95;8.30;;;34.90;99.90;;;;;;5024047;28;20268;-56
2023/08/22 06:51:48;;;;;;;8.57;7.93;;;35.00;99.90;;;;;;5019378;28;20260;-55
2023/08/22 06:54:15;;;;;;;7.97;7.25;;;35.50;99.90;;;;;;5018304;28;20223;-55
2023/08/22 06:56:42;;;;;;;8.00;7.45;;;36.10;99.40;;;;;;5015125;28;20195;-58
2023/08/22 06:59:10;;;;;;;8.50;7.90;;;36.10;98.70;;;;;;5022769;28;20311;-57
2023/08/22 07:01:38;;;;;;;9.05;8.15;;;36.70;96.90;;;;;;5027217;28;20209;-56
2023/08/22 07:04:07;;;;;;;8.57;7.90;;;36.60;96.70;;;;;;5033591;28;20194;-56
2023/08/22 07:06:34;;;;;;;9.27;8.70;;;36.60;96.80;;;;;;5033954;28;20260;-55
2023/08/22 07:09:00;;;;;;;8.73;8.10;;;36.70;95.90;;;;;;5037011;28;20280;-55
2023/08/22 07:11:27;;;;;;;7.80;7.40;;;36.80;95.00;;;;;;5033693;28;20202;-56
2023/08/22 07:13:54;;;;;;;8.43;7.93;;;36.60;95.50;;;;;;5033483;28;20230;-56
2023/08/22 07:16:21;;;;;;;8.13;7.55;;;36.60;96.40;;;;;;5033729;28;20210;-56
2023/08/22 07:18:48;;;;;;;8.85;8.23;;;36.70;96.20;;;;;;5033568;28;20365;-56
2023/08/22 07:21:17;;;;;;;9.20;8.50;;;37.10;95.50;;;;;;5033677;28;20502;-56
2023/08/22 07:23:46;;;;;;;8.02;7.40;;;36.50;94.70;;;;;;5033316;28;20202;-57
2023/08/22 07:26:13;;;;;;;9.10;8.32;;;36.20;96.00;;;;;;5032684;28;20313;-57
2023/08/22 07:28:40;;;;;;;8.77;8.20;;;36.90;95.20;;;;;;5033608;28;20276;-57
2023/08/22 07:31:07;;;;;;;8.02;7.47;;;37.30;94.30;;;;;;5033504;28;20252;-57
2023/08/22 07:33:34;;;;;;;8.05;7.68;;;37.70;94.70;;;;;;5034414;28;20214;-57
2023/08/22 07:36:02;;;;;;;8.80;8.13;;;37.40;92.40;;;;;;5042507;28;20633;-57
2023/08/22 07:38:30;;;;;;;8.73;8.13;;;37.10;93.10;;;;;;5038349;28;20707;-57
2023/08/22 07:40:57;;;;;;;7.88;7.40;;;37.40;93.80;;;;;;5053089;28;20202;-58
2023/08/22 07:43:24;;;;;;;7.68;7.07;;;37.90;92.80;;;;;;5027212;28;20256;-56
2023/08/22 07:45:51;;;;;;;8.30;7.53;;;37.80;93.10;;;;;;5033416;28;20268;-57
2023/08/22 07:48:18;;;;;;;9.40;8.57;;;38.10;91.70;;;;;;5033133;28;20352;-57
2023/08/22 07:50:45;;;;;;;8.27;7.68;;;38.10;91.70;;;;;;5030339;28;20205;-57
2023/08/22 07:53:14;;;;;;;9.20;8.60;;;38.20;91.30;;;;;;5032054;28;20248;-57
2023/08/22 07:55:42;;;;;;;8.52;7.93;;;38.60;90.70;;;;;;5033366;28;20213;-57
2023/08/22 07:58:11;;;;;;;8.63;7.78;;;38.90;90.30;;;;;;5030700;28;20290;-57
2023/08/22 08:00:38;;;;;;;11.70;7.95;;;38.80;90.50;;;;;;5025658;28;20665;-57
2023/08/22 08:03:05;;;;;;;8.32;7.93;;;38.70;91.20;;;;;;5029984;28;20294;-58
2023/08/22 08:05:33;;;;;;;8.40;7.90;;;38.50;90.00;;;;;;5031161;28;20256;-58
2023/08/22 08:08:00;;;;;;;8.60;7.97;;;38.20;90.10;;;;;;5031728;28;20249;-57
2023/08/22 08:10:27;;;;;;;8.35;7.65;;;38.30;90.70;;;;;;5031354;28;20237;-57
2023/08/22 08:12:56;;;;;;;8.30;7.75;;;38.80;89.10;;;;;;5032226;28;20271;-57
2023/08/22 08:15:23;;;;;;;9.20;8.50;;;39.00;88.10;;;;;;5031097;28;20292;-57
2023/08/22 08:17:49;;;;;;;7.70;7.15;;;38.90;89.80;;;;;;5030178;28;20206;-57
2023/08/22 08:20:16;;;;;;;8.75;7.90;;;38.90;90.60;;;;;;5029745;28;20279;-57
2023/08/22 08:22:43;;;;;;;11.38;10.25;;;38.60;91.10;;;;;;5032137;28;20679;-57
2023/08/22 08:25:10;;;;;;;10.05;9.48;;;38.60;90.20;;;;;;5030710;28;20199;-58
2023/08/22 08:27:37;;;;;;;8.80;8.10;;;38.30;87.60;;;;;;5030460;28;20205;-56
2023/08/22 08:30:07;;;;;;;8.48;7.75;;;37.20;91.30;;;;;;5036747;28;20256;-56
2023/08/22 08:32:34;;;;;;;9.25;8.65;;;37.40;90.30;;;;;;5030068;28;20289;-57
2023/08/22 08:35:01;;;;;;;9.02;8.48;;;37.20;91.30;;;;;;5031212;28;20275;-57
2023/08/22 08:37:29;;;;;;;9.88;8.93;;;37.90;91.20;;;;;;5029437;28;20202;-56
2023/08/22 08:39:56;;;;;;;8.63;8.05;;;38.20;91.00;;;;;;5028701;28;20234;-60
2023/08/22 08:42:23;;;;;;;9.15;8.38;;;38.20;91.20;;;;;;5031441;28;20194;-59
2023/08/22 08:44:50;;;;;;;9.45;8.60;;;38.40;88.10;;;;;;5030170;28;20285;-56
2023/08/22 08:47:19;;;;;;;8.85;8.23;;;38.80;87.40;;;;;;5031833;28;20199;-61
2023/08/22 08:49:47;;;;;;;8.63;7.90;;;38.90;89.90;;;;;;5031379;28;20226;-64
2023/08/22 08:52:15;;;;;;;9.15;8.48;;;38.70;88.80;;;;;;5031712;28;20210;-61
2023/08/22 08:54:43;;;;;;;10.88;9.07;;;39.00;87.90;;;;;;5031113;28;20268;-60
2023/08/22 08:57:10;;;;;;;9.00;8.32;;;39.50;85.00;;;;;;5023974;28;20203;-61
2023/08/22 08:59:37;;;;;;;10.00;9.30;;;39.30;84.70;;;;;;5033164;28;20297;-64
2023/08/22 09:02:05;;;;;;;9.23;8.75;;;39.40;88.10;;;;;;5051659;28;20206;-64
2023/08/22 09:04:33;;;;;;;9.23;8.52;;;39.50;84.20;;;;;;5051592;28;20197;-62
2023/08/22 09:07:01;;;;;;;9.73;9.00;;;39.50;86.70;;;;;;5030408;28;20206;-64
2023/08/22 09:09:34;;;;;;;12.27;11.13;;;39.50;87.40;;;;;;5031464;28;20223;-63
2023/08/22 09:12:06;;;;;;;10.82;10.05;;;38.50;90.50;;;;;;5031577;28;20294;-63
2023/08/22 09:14:33;;;;;;;9.82;8.85;;;38.50;91.30;;;;;;5031766;28;20223;-62
2023/08/22 09:17:01;;;;;;;11.35;9.93;;;38.60;91.90;;;;;;5030697;28;20206;-63
2023/08/22 09:19:34;;;;;;;10.73;9.88;;;38.20;91.50;;;;;;5031486;28;20222;-64
2023/08/22 09:22:03;;;;;;;9.63;8.93;;;37.60;92.50;;;;;;5031262;28;20230;-64
2023/08/22 09:24:32;;;;;;;10.43;9.57;;;37.80;92.50;;;;;;5031236;28;20206;-62
2023/08/22 09:27:01;;;;;;;9.98;9.20;;;38.10;92.20;;;;;;5022291;28;20203;-63
2023/08/22 09:29:29;;;;;;;10.65;9.65;;;38.40;92.00;;;;;;5031391;28;20530;-64
2023/08/22 09:31:58;;;;;;;10.52;9.60;;;38.50;91.10;;;;;;5031110;28;20261;-64
2023/08/22 09:34:25;;;;;;;10.98;9.85;;;38.40;91.80;;;;;;5031022;28;20218;-62
2023/08/22 09:36:55;;;;;;;14.18;9.80;;;38.60;92.30;;;;;;5030207;28;20198;-63
2023/08/22 09:39:23;;;;;;;10.50;9.43;;;38.50;90.60;;;;;;5031123;28;20317;-65
2023/08/22 09:41:52;;;;;;;10.07;9.10;;;38.20;92.10;;;;;;5030738;28;20439;-65
2023/08/22 09:44:22;;;;;;;11.57;10.40;;;38.00;92.00;;;;;;5031035;28;20680;-63
2023/08/22 09:46:50;;;;;;;12.00;10.90;;;38.10;92.40;;;;;;5030386;28;20285;-61
2023/08/22 09:49:18;;;;;;;10.57;9.77;;;37.40;92.80;;;;;;5031085;28;20280;-63
2023/08/22 09:51:45;;;;;;;14.35;11.43;;;37.10;93.00;;;;;;5031029;28;20210;-63
2023/08/22 09:54:15;;;;;;;10.05;9.32;;;36.40;94.00;;;;;;5030540;28;20215;-63
2023/08/22 09:56:42;;;;;;;10.00;9.27;;;36.10;94.10;;;;;;5029911;28;20742;-62
2023/08/22 09:59:11;;;;;;;8.77;8.27;;;36.70;93.50;;;;;;5022856;28;20226;-59
2023/08/22 10:01:39;;;;;;;10.23;9.30;;;37.20;92.70;;;;;;5033254;28;20199;-61
2023/08/22 10:04:07;;;;;;;12.23;9.80;;;37.60;93.10;;;;;;5034762;28;20738;-62
2023/08/22 10:06:36;;;;;;;10.38;9.60;;;38.20;91.50;;;;;;5034190;28;20248;-61
2023/08/22 10:09:10;;;;;;;10.07;9.30;;;38.10;90.90;;;;;;5034877;28;20703;-63
2023/08/22 10:11:42;;;;;;;10.80;9.93;;;38.20;91.20;;;;;;5035105;28;20213;-61
2023/08/22 10:14:13;;;;;;;10.48;9.50;;;37.80;90.90;;;;;;5034630;28;20317;-61
2023/08/22 10:16:40;;;;;;;10.23;9.55;;;37.70;91.30;;;;;;5034138;28;20201;-63
2023/08/22 10:19:09;;;;;;;10.32;9.63;;;38.20;91.20;;;;;;5026818;28;20276;-61
2023/08/22 10:21:43;;;;;;;13.38;9.23;;;38.00;94.00;;;;;;5034760;28;20203;-63
2023/08/22 10:24:21;;;;;;;9.82;8.85;;;37.40;91.80;;;;;;5034644;28;20285;-62
2023/08/22 10:26:59;;;;;;;11.02;10.25;;;37.70;91.60;;;;;;5030879;28;20294;-61
2023/08/22 10:29:32;;;;;;;10.88;10.13;;;37.70;91.50;;;;;;5034702;28;20218;-56
2023/08/22 10:32:20;;;;;;;10.30;9.27;;;37.40;92.10;;;;;;5034952;28;20264;-65
2023/08/22 10:35:23;;;;;;;9.65;9.05;;;37.40;93.40;;;;;;5034325;28;20222;-65
2023/08/22 10:37:51;;;;;;;10.15;9.27;;;38.10;91.70;;;;;;5033793;28;20288;-56
2023/08/22 10:40:33;;;;;;;10.18;9.40;;;38.00;90.80;;;;;;5034278;28;20739;-56
2023/08/22 10:43:10;;;;;;;9.55;8.73;;;37.90;92.50;;;;;;5033741;28;20237;-56
2023/08/22 10:45:53;;;;;;;8.80;8.30;;;38.10;91.10;;;;;;5034436;28;20237;-61
2023/08/22 10:48:22;;;;;;;10.57;9.60;;;38.30;90.40;;;;;;5031958;28;20300;-61
2023/08/22 10:50:51;;;;;;;10.43;9.45;;;38.30;92.00;;;;;;5034068;28;20207;-63
2023/08/22 10:53:26;;;;;;;9.13;8.48;;;38.30;91.30;;;;;;5033970;28;20289;-61
2023/08/22 10:55:54;;;;;;;9.50;8.73;;;38.00;91.10;;;;;;5034322;28;20222;-63
2023/08/22 10:58:36;;;;;;;9.15;8.55;;;37.80;91.50;;;;;;5033311;28;20268;-61
2023/08/22 11:01:06;;;;;;;9.95;9.35;;;37.60;91.10;;;;;;5034171;28;20205;-60
2023/08/22 11:03:33;;;;;;;9.57;8.95;;;36.70;92.20;;;;;;5033836;28;20297;-59
2023/08/22 11:06:00;;;;;;;10.70;9.98;;;36.40;93.00;;;;;;5034205;28;20268;-61
2023/08/22 11:08:27;;;;;;;10.50;9.70;;;35.90;94.80;;;;;;5032941;28;20230;-63
2023/08/22 11:10:54;;;;;;;10.38;9.40;;;35.50;93.50;;;;;;5033829;28;20225;-60
2023/08/22 11:13:21;;;;;;;8.98;8.38;;;35.50;94.50;;;;;;5033360;28;20206;-63
2023/08/22 11:15:53;;;;;;;11.40;10.30;;;35.20;94.30;;;;;;5033856;28;20226;-62
2023/08/22 11:18:20;;;;;;;9.95;9.15;;;35.10;94.90;;;;;;5032753;28;20288;-61
2023/08/22 11:20:55;;;;;;;9.93;9.32;;;35.00;94.90;;;;;;5033805;28;20198;-63
2023/08/22 11:23:22;;;;;;;12.95;9.38;;;34.80;95.70;;;;;;5033458;28;20747;-61
2023/08/22 11:25:49;;;;;;;10.30;9.65;;;34.40;95.40;;;;;;5033580;28;20256;-61
2023/08/22 11:28:16;;;;;;;10.82;9.82;;;34.30;95.60;;;;;;5032418;28;20222;-61
2023/08/22 11:30:43;;;;;;;10.23;9.43;;;33.90;97.10;;;;;;5033430;28;20194;-59
2023/08/22 11:33:20;;;;;;;10.00;9.35;;;34.00;97.20;;;;;;5032499;28;20549;-58
2023/08/22 11:35:47;;;;;;;8.43;7.75;;;34.00;98.20;;;;;;5033245;28;20304;-63
2023/08/22 11:38:14;;;;;;;10.75;9.73;;;34.10;96.90;;;;;;5032364;28;20219;-65
2023/08/22 11:40:43;;;;;;;10.25;9.30;;;33.90;97.10;;;;;;5032957;28;20264;-64
2023/08/22 11:43:14;;;;;;;9.52;8.70;;;33.80;98.60;;;;;;5033073;28;20209;-62
2023/08/22 11:45:48;;;;;;;9.27;8.68;;;33.50;99.30;;;;;;5033285;28;20234;-63
2023/08/22 11:48:16;;;;;;;10.68;9.60;;;33.30;98.40;;;;;;5032463;28;20279;-63
2023/08/22 11:50:45;;;;;;;9.75;8.90;;;33.40;99.40;;;;;;5033002;28;20234;-61
2023/08/22 11:53:13;;;;;;;10.82;8.57;;;33.50;98.20;;;;;;5032978;28;20202;-63
2023/08/22 11:55:43;;;;;;;10.85;9.45;;;33.30;97.80;;;;;;5026584;28;20281;-62
2023/08/22 11:58:13;;;;;;;10.40;9.70;;;33.40;98.40;;;;;;5014156;28;20211;-63
2023/08/22 12:00:40;;;;;;;10.18;9.48;;;33.30;99.90;;;;;;5017057;28;20206;-68
2023/08/22 12:03:11;;;;;;;13.20;9.27;;;33.40;99.90;;;;;;5013472;28;20284;-58
2023/08/22 12:05:39;;;;;;;9.95;9.15;;;33.50;99.90;;;;;;5012850;28;20223;-62
2023/08/22 12:08:21;;;;;;;9.27;8.48;;;33.50;98.00;;;;;;5012827;28;20207;-63
2023/08/22 12:10:49;;;;;;;9.05;8.20;;;33.50;98.70;;;;;;5012581;28;20245;-64
2023/08/22 12:13:18;;;;;;;8.65;8.05;;;33.60;99.90;;;;;;5012490;28;20572;-62
2023/08/22 12:15:45;;;;;;;9.27;8.57;;;33.30;99.90;;;;;;5019361;28;20589;-60
2023/08/22 12:18:13;;;;;;;10.05;9.18;;;33.20;98.20;;;;;;5019508;28;20219;-61
2023/08/22 12:20:41;;;;;;;8.43;7.93;;;33.30;99.40;;;;;;5014013;28;20217;-61
2023/08/22 12:23:09;;;;;;;9.30;8.80;;;33.10;99.90;;;;;;5014017;28;20199;-59
2023/08/22 12:25:40;;;;;;;9.85;9.00;;;33.10;99.90;;;;;;5020536;28;20222;-61
2023/08/22 12:28:08;;;;;;;10.00;8.98;;;33.10;99.00;;;;;;5012375;28;20187;-66
2023/08/22 12:30:38;;;;;;;8.55;8.05;;;33.20;99.80;;;;;;5014951;28;20214;-61
2023/08/22 12:33:09;;;;;;;22.38;9.38;;;33.30;99.90;;;;;;5030466;28;20199;-61
2023/08/22 12:35:38;;;;;;;9.68;8.93;;;33.20;99.90;;;;;;5032074;28;20691;-62
2023/08/22 12:38:08;;;;;;;8.77;8.35;;;33.20;99.90;;;;;;5031199;28;20281;-61
2023/08/22 12:40:36;;;;;;;9.15;8.32;;;33.20;99.90;;;;;;5030855;28;20213;-63
2023/08/22 12:43:04;;;;;;;8.85;8.23;;;33.10;99.90;;;;;;5030424;28;20195;-62
2023/08/22 12:45:31;;;;;;;8.73;7.85;;;33.20;99.90;;;;;;5030260;28;20206;-58